Terminal Aerodrome Forecast
Issued by NWS

Home | Current Version | Previous Version | Text Only | Print | Product List | Glossary On
Versions: 1 2 3 4 5 6 7 8 9 10 11 12
244
FTUS45 KTFX 221720
TAFGTF
TAF
KGTF 221720Z 2218/2318 VRB04KT P6SM SCT070
     FM222200 06010KT P6SM VCTS BKN060CB
     FM230200 06012KT P6SM BKN090
     FM231000 05005KT P6SM SCT090 BKN120 PROB30 2314/2318 -SHRA
      BKN060=

USA.gov is the U.S. government's official web portal to all federal, state and local government web resources and services.